sensor_id;sensor_type;location;lat;lon;timestamp;pressure;altitude;pressure_sealevel;temperature;humidity
50710;BME280;37033;49.994;21.992;2023-11-21T00:00:12;98427.39;;;4.60;99.71
50710;BME280;37033;49.994;21.992;2023-11-21T00:03:03;98430.39;;;4.59;99.68
50710;BME280;37033;49.994;21.992;2023-11-21T00:05:34;98429.23;;;4.58;99.77
50710;BME280;37033;49.994;21.992;2023-11-21T00:08:05;98427.52;;;4.59;99.62
50710;BME280;37033;49.994;21.992;2023-11-21T00:10:36;98429.88;;;4.60;99.73
50710;BME280;37033;49.994;21.992;2023-11-21T00:13:07;98432.39;;;4.61;99.76
50710;BME280;37033;49.994;21.992;2023-11-21T00:15:38;98428.23;;;4.62;99.77
50710;BME280;37033;49.994;21.992;2023-11-21T00:18:09;98430.86;;;4.64;99.69
50710;BME280;37033;49.994;21.992;2023-11-21T00:20:40;98431.59;;;4.65;99.78
50710;BME280;37033;49.994;21.992;2023-11-21T00:23:11;98437.42;;;4.66;99.90
50710;BME280;37033;49.994;21.992;2023-11-21T00:25:41;98434.48;;;4.66;99.85
50710;BME280;37033;49.994;21.992;2023-11-21T00:28:13;98432.33;;;4.66;99.89
50710;BME280;37033;49.994;21.992;2023-11-21T00:30:44;98432.23;;;4.67;99.91
50710;BME280;37033;49.994;21.992;2023-11-21T00:33:15;98433.83;;;4.68;99.95
50710;BME280;37033;49.994;21.992;2023-11-21T00:35:45;98437.15;;;4.68;99.84
50710;BME280;37033;49.994;21.992;2023-11-21T00:38:16;98438.42;;;4.69;99.91
50710;BME280;37033;49.994;21.992;2023-11-21T00:40:49;98443.61;;;4.70;99.91
50710;BME280;37033;49.994;21.992;2023-11-21T00:43:19;98443.66;;;4.71;99.96
50710;BME280;37033;49.994;21.992;2023-11-21T00:45:50;98440.35;;;4.72;100.00
50710;BME280;37033;49.994;21.992;2023-11-21T00:48:21;98442.81;;;4.74;99.90
50710;BME280;37033;49.994;21.992;2023-11-21T00:50:51;98435.27;;;4.75;99.87
50710;BME280;37033;49.994;21.992;2023-11-21T00:53:22;98437.89;;;4.77;99.95
50710;BME280;37033;49.994;21.992;2023-11-21T00:55:52;98435.58;;;4.77;99.96
50710;BME280;37033;49.994;21.992;2023-11-21T00:58:26;98435.42;;;4.77;99.91
50710;BME280;37033;49.994;21.992;2023-11-21T01:00:57;98434.02;;;4.78;99.99
50710;BME280;37033;49.994;21.992;2023-11-21T01:03:27;98435.44;;;4.78;99.91
50710;BME280;37033;49.994;21.992;2023-11-21T01:05:58;98433.52;;;4.79;99.92
50710;BME280;37033;49.994;21.992;2023-11-21T01:08:29;98430.90;;;4.79;99.99
50710;BME280;37033;49.994;21.992;2023-11-21T01:11:00;98432.52;;;4.80;99.97
50710;BME280;37033;49.994;21.992;2023-11-21T01:13:31;98435.77;;;4.82;100.00
50710;BME280;37033;49.994;21.992;2023-11-21T01:16:02;98434.17;;;4.83;100.00
50710;BME280;37033;49.994;21.992;2023-11-21T01:18:33;98430.02;;;4.83;100.00
50710;BME280;37033;49.994;21.992;2023-11-21T01:21:05;98430.94;;;4.83;99.97
50710;BME280;37033;49.994;21.992;2023-11-21T01:23:36;98432.41;;;4.84;99.96
50710;BME280;37033;49.994;21.992;2023-11-21T01:26:08;98427.34;;;4.85;100.00
50710;BME280;37033;49.994;21.992;2023-11-21T01:28:39;98427.91;;;4.86;100.00
50710;BME280;37033;49.994;21.992;2023-11-21T01:31:10;98429.98;;;4.87;100.00
50710;BME280;37033;49.994;21.992;2023-11-21T01:33:40;98430.68;;;4.87;100.00
50710;BME280;37033;49.994;21.992;2023-11-21T01:36:11;98428.73;;;4.88;100.00
50710;BME280;37033;49.994;21.992;2023-11-21T01:38:42;98427.50;;;4.89;100.00
50710;BME280;37033;49.994;21.992;2023-11-21T01:41:13;98431.16;;;4.89;100.00
50710;BME280;37033;49.994;21.992;2023-11-21T01:43:43;98430.20;;;4.89;100.00
50710;BME280;37033;49.994;21.992;2023-11-21T01:46:14;98428.53;;;4.89;100.00
50710;BME280;37033;49.994;21.992;2023-11-21T01:48:45;98427.05;;;4.89;100.00
50710;BME280;37033;49.994;21.992;2023-11-21T01:51:16;98427.65;;;4.90;100.00
50710;BME280;37033;49.994;21.992;2023-11-21T01:53:47;98424.96;;;4.90;100.00
50710;BME280;37033;49.994;21.992;2023-11-21T01:56:18;98424.96;;;4.90;100.00
50710;BME280;37033;49.994;21.992;2023-11-21T01:58:49;98429.17;;;4.91;100.00
50710;BME280;37033;49.994;21.992;2023-11-21T02:01:20;98426.56;;;4.90;100.00
50710;BME280;37033;49.994;21.992;2023-11-21T02:03:51;98426.95;;;4.90;100.00
50710;BME280;37033;49.994;21.992;2023-11-21T02:06:22;98428.14;;;4.90;100.00
50710;BME280;37033;49.994;21.992;2023-11-21T02:08:53;98432.83;;;4.90;100.00
50710;BME280;37033;49.994;21.992;2023-11-21T02:11:24;98434.70;;;4.92;100.00
50710;BME280;37033;49.994;21.992;2023-11-21T02:13:55;98435.36;;;4.93;100.00
50710;BME280;37033;49.994;21.992;2023-11-21T02:16:26;98434.59;;;4.94;100.00
50710;BME280;37033;49.994;21.992;2023-11-21T02:19:00;98435.33;;;4.95;100.00
50710;BME280;37033;49.994;21.992;2023-11-21T02:21:31;98436.73;;;4.96;100.00
50710;BME280;37033;49.994;21.992;2023-11-21T02:24:04;98437.77;;;4.96;100.00
50710;BME280;37033;49.994;21.992;2023-11-21T02:26:35;98436.70;;;4.97;100.00
50710;BME280;37033;49.994;21.992;2023-11-21T02:29:05;98437.03;;;4.98;100.00
50710;BME280;37033;49.994;21.992;2023-11-21T02:31:40;98433.09;;;4.99;100.00
50710;BME280;37033;49.994;21.992;2023-11-21T02:34:17;98437.52;;;4.99;100.00
50710;BME280;37033;49.994;21.992;2023-11-21T02:36:48;98438.00;;;4.99;100.00
50710;BME280;37033;49.994;21.992;2023-11-21T02:39:20;98435.92;;;5.00;100.00
50710;BME280;37033;49.994;21.992;2023-11-21T02:41:51;98439.20;;;5.00;100.00
50710;BME280;37033;49.994;21.992;2023-11-21T02:44:22;98439.94;;;5.01;100.00
50710;BME280;37033;49.994;21.992;2023-11-21T02:46:53;98431.64;;;5.03;100.00
50710;BME280;37033;49.994;21.992;2023-11-21T02:49:24;98435.59;;;5.04;100.00
50710;BME280;37033;49.994;21.992;2023-11-21T02:51:57;98439.76;;;5.04;100.00
50710;BME280;37033;49.994;21.992;2023-11-21T02:54:28;98437.94;;;5.05;100.00
50710;BME280;37033;49.994;21.992;2023-11-21T02:56:58;98438.90;;;5.06;100.00
50710;BME280;37033;49.994;21.992;2023-11-21T02:59:29;98438.31;;;5.07;100.00
50710;BME280;37033;49.994;21.992;2023-11-21T03:02:00;98441.84;;;5.08;100.00
50710;BME280;37033;49.994;21.992;2023-11-21T03:04:31;98441.78;;;5.08;100.00
50710;BME280;37033;49.994;21.992;2023-11-21T03:07:03;98443.36;;;5.08;100.00
50710;BME280;37033;49.994;21.992;2023-11-21T03:09:34;98445.38;;;5.09;100.00
50710;BME280;37033;49.994;21.992;2023-11-21T03:12:06;98446.20;;;5.09;100.00
50710;BME280;37033;49.994;21.992;2023-11-21T03:14:38;98446.65;;;5.10;100.00
50710;BME280;37033;49.994;21.992;2023-11-21T03:17:08;98445.91;;;5.11;100.00
50710;BME280;37033;49.994;21.992;2023-11-21T03:19:40;98441.52;;;5.12;100.00
50710;BME280;37033;49.994;21.992;2023-11-21T03:22:11;98441.38;;;5.13;100.00
50710;BME280;37033;49.994;21.992;2023-11-21T03:24:42;98449.09;;;5.13;100.00
50710;BME280;37033;49.994;21.992;2023-11-21T03:27:13;98441.58;;;5.14;100.00
50710;BME280;37033;49.994;21.992;2023-11-21T03:29:43;98439.98;;;5.15;100.00
50710;BME280;37033;49.994;21.992;2023-11-21T03:32:14;98439.64;;;5.16;100.00
50710;BME280;37033;49.994;21.992;2023-11-21T03:34:56;98436.90;;;5.17;100.00
50710;BME280;37033;49.994;21.992;2023-11-21T03:37:27;98434.36;;;5.17;100.00
50710;BME280;37033;49.994;21.992;2023-11-21T03:39:58;98433.73;;;5.17;100.00
50710;BME280;37033;49.994;21.992;2023-11-21T03:42:29;98436.86;;;5.18;100.00
50710;BME280;37033;49.994;21.992;2023-11-21T03:44:59;98440.23;;;5.18;100.00
50710;BME280;37033;49.994;21.992;2023-11-21T03:47:30;98448.48;;;5.18;100.00
50710;BME280;37033;49.994;21.992;2023-11-21T03:50:01;98441.84;;;5.18;100.00
50710;BME280;37033;49.994;21.992;2023-11-21T03:52:32;98441.16;;;5.19;100.00
50710;BME280;37033;49.994;21.992;2023-11-21T03:55:03;98445.50;;;5.20;100.00
50710;BME280;37033;49.994;21.992;2023-11-21T03:57:34;98445.69;;;5.21;100.00
50710;BME280;37033;49.994;21.992;2023-11-21T04:00:07;98448.16;;;5.23;100.00
50710;BME280;37033;49.994;21.992;2023-11-21T04:02:39;98445.29;;;5.24;100.00
50710;BME280;37033;49.994;21.992;2023-11-21T04:05:10;98448.64;;;5.24;100.00
50710;BME280;37033;49.994;21.992;2023-11-21T04:07:41;98445.27;;;5.25;100.00
50710;BME280;37033;49.994;21.992;2023-11-21T04:10:12;98443.09;;;5.26;100.00
50710;BME280;37033;49.994;21.992;2023-11-21T04:12:43;98444.99;;;5.27;100.00
50710;BME280;37033;49.994;21.992;2023-11-21T04:15:14;98445.73;;;5.28;100.00
50710;BME280;37033;49.994;21.992;2023-11-21T04:17:45;98447.31;;;5.29;100.00
50710;BME280;37033;49.994;21.992;2023-11-21T04:20:15;98449.76;;;5.30;100.00
50710;BME280;37033;49.994;21.992;2023-11-21T04:22:46;98449.86;;;5.30;100.00
50710;BME280;37033;49.994;21.992;2023-11-21T04:25:17;98444.13;;;5.32;100.00
50710;BME280;37033;49.994;21.992;2023-11-21T04:27:48;98450.45;;;5.32;100.00
50710;BME280;37033;49.994;21.992;2023-11-21T04:30:19;98448.23;;;5.34;100.00
50710;BME280;37033;49.994;21.992;2023-11-21T04:32:50;98449.57;;;5.36;100.00
50710;BME280;37033;49.994;21.992;2023-11-21T04:35:21;98454.05;;;5.38;100.00
50710;BME280;37033;49.994;21.992;2023-11-21T04:37:51;98452.11;;;5.39;100.00
50710;BME280;37033;49.994;21.992;2023-11-21T04:40:22;98454.53;;;5.41;100.00
50710;BME280;37033;49.994;21.992;2023-11-21T04:42:53;98455.10;;;5.41;100.00
50710;BME280;37033;49.994;21.992;2023-11-21T04:45:23;98457.35;;;5.43;100.00
50710;BME280;37033;49.994;21.992;2023-11-21T04:47:54;98462.78;;;5.43;100.00
50710;BME280;37033;49.994;21.992;2023-11-21T04:50:25;98459.13;;;5.43;100.00
50710;BME280;37033;49.994;21.992;2023-11-21T04:52:56;98466.66;;;5.44;100.00
50710;BME280;37033;49.994;21.992;2023-11-21T04:55:27;98462.86;;;5.46;100.00
50710;BME280;37033;49.994;21.992;2023-11-21T04:57:58;98460.95;;;5.47;100.00
50710;BME280;37033;49.994;21.992;2023-11-21T05:00:28;98463.30;;;5.48;100.00
50710;BME280;37033;49.994;21.992;2023-11-21T05:02:59;98465.52;;;5.48;100.00
50710;BME280;37033;49.994;21.992;2023-11-21T05:05:30;98466.55;;;5.49;100.00
50710;BME280;37033;49.994;21.992;2023-11-21T05:08:01;98468.34;;;5.49;100.00
50710;BME280;37033;49.994;21.992;2023-11-21T05:10:32;98468.30;;;5.50;100.00
50710;BME280;37033;49.994;21.992;2023-11-21T05:13:03;98467.05;;;5.51;100.00
50710;BME280;37033;49.994;21.992;2023-11-21T05:15:34;98466.25;;;5.52;100.00
50710;BME280;37033;49.994;21.992;2023-11-21T05:18:05;98468.43;;;5.53;100.00
50710;BME280;37033;49.994;21.992;2023-11-21T05:20:35;98470.04;;;5.54;100.00
50710;BME280;37033;49.994;21.992;2023-11-21T05:23:08;98467.25;;;5.55;100.00
50710;BME280;37033;49.994;21.992;2023-11-21T05:25:39;98467.11;;;5.56;100.00
50710;BME280;37033;49.994;21.992;2023-11-21T05:28:10;98470.58;;;5.57;100.00
50710;BME280;37033;49.994;21.992;2023-11-21T05:30:41;98466.70;;;5.57;100.00
50710;BME280;37033;49.994;21.992;2023-11-21T05:33:12;98463.76;;;5.58;100.00
50710;BME280;37033;49.994;21.992;2023-11-21T05:35:42;98469.31;;;5.58;100.00
50710;BME280;37033;49.994;21.992;2023-11-21T05:38:13;98474.65;;;5.58;100.00
50710;BME280;37033;49.994;21.992;2023-11-21T05:40:44;98474.91;;;5.59;100.00
50710;BME280;37033;49.994;21.992;2023-11-21T05:43:14;98473.33;;;5.59;100.00
50710;BME280;37033;49.994;21.992;2023-11-21T05:45:45;98475.69;;;5.58;100.00
50710;BME280;37033;49.994;21.992;2023-11-21T05:48:16;98478.84;;;5.59;100.00
50710;BME280;37033;49.994;21.992;2023-11-21T05:50:47;98482.19;;;5.60;100.00
50710;BME280;37033;49.994;21.992;2023-11-21T05:53:18;98482.63;;;5.60;100.00
50710;BME280;37033;49.994;21.992;2023-11-21T05:55:49;98480.85;;;5.60;100.00
50710;BME280;37033;49.994;21.992;2023-11-21T05:58:19;98482.64;;;5.60;100.00
50710;BME280;37033;49.994;21.992;2023-11-21T06:00:50;98484.20;;;5.61;100.00
50710;BME280;37033;49.994;21.992;2023-11-21T06:03:20;98486.55;;;5.62;100.00
50710;BME280;37033;49.994;21.992;2023-11-21T06:05:52;98488.64;;;5.62;100.00
50710;BME280;37033;49.994;21.992;2023-11-21T06:08:23;98491.55;;;5.63;100.00
50710;BME280;37033;49.994;21.992;2023-11-21T06:10:54;98497.34;;;5.64;100.00
50710;BME280;37033;49.994;21.992;2023-11-21T06:13:25;98497.64;;;5.65;100.00
50710;BME280;37033;49.994;21.992;2023-11-21T06:15:55;98498.84;;;5.66;100.00
50710;BME280;37033;49.994;21.992;2023-11-21T06:18:26;98496.97;;;5.66;100.00
50710;BME280;37033;49.994;21.992;2023-11-21T06:20:56;98500.96;;;5.66;100.00
50710;BME280;37033;49.994;21.992;2023-11-21T06:23:28;98496.94;;;5.68;100.00
50710;BME280;37033;49.994;21.992;2023-11-21T06:25:58;98497.98;;;5.68;100.00
50710;BME280;37033;49.994;21.992;2023-11-21T06:28:29;98502.27;;;5.69;100.00
50710;BME280;37033;49.994;21.992;2023-11-21T06:31:00;98505.63;;;5.70;100.00
50710;BME280;37033;49.994;21.992;2023-11-21T06:33:34;98504.42;;;5.70;100.00
50710;BME280;37033;49.994;21.992;2023-11-21T06:36:07;98511.55;;;5.71;100.00
50710;BME280;37033;49.994;21.992;2023-11-21T06:38:40;98509.02;;;5.71;100.00
50710;BME280;37033;49.994;21.992;2023-11-21T06:41:11;98513.95;;;5.73;100.00
50710;BME280;37033;49.994;21.992;2023-11-21T06:43:44;98518.70;;;5.75;100.00
50710;BME280;37033;49.994;21.992;2023-11-21T06:46:15;98517.25;;;5.75;100.00
50710;BME280;37033;49.994;21.992;2023-11-21T06:48:46;98516.59;;;5.77;100.00
50710;BME280;37033;49.994;21.992;2023-11-21T06:51:18;98521.23;;;5.77;100.00
50710;BME280;37033;49.994;21.992;2023-11-21T06:53:49;98520.72;;;5.78;100.00
50710;BME280;37033;49.994;21.992;2023-11-21T06:56:20;98522.63;;;5.79;100.00
50710;BME280;37033;49.994;21.992;2023-11-21T06:58:50;98525.09;;;5.81;100.00
50710;BME280;37033;49.994;21.992;2023-11-21T07:01:23;98527.97;;;5.82;100.00
50710;BME280;37033;49.994;21.992;2023-11-21T07:03:54;98534.51;;;5.82;100.00
50710;BME280;37033;49.994;21.992;2023-11-21T07:06:24;98531.40;;;5.83;100.00
50710;BME280;37033;49.994;21.992;2023-11-21T07:08:55;98529.54;;;5.84;100.00
50710;BME280;37033;49.994;21.992;2023-11-21T07:11:26;98532.20;;;5.87;100.00
50710;BME280;37033;49.994;21.992;2023-11-21T07:13:57;98534.39;;;5.88;100.00
50710;BME280;37033;49.994;21.992;2023-11-21T07:16:27;98534.67;;;5.88;100.00
50710;BME280;37033;49.994;21.992;2023-11-21T07:18:59;98534.02;;;5.90;100.00
50710;BME280;37033;49.994;21.992;2023-11-21T07:21:30;98533.98;;;5.90;100.00
50710;BME280;37033;49.994;21.992;2023-11-21T07:24:01;98534.96;;;5.91;100.00
50710;BME280;37033;49.994;21.992;2023-11-21T07:26:32;98534.80;;;5.91;100.00
50710;BME280;37033;49.994;21.992;2023-11-21T07:29:04;98535.09;;;5.91;100.00
50710;BME280;37033;49.994;21.992;2023-11-21T07:31:35;98534.92;;;5.92;100.00
50710;BME280;37033;49.994;21.992;2023-11-21T07:34:06;98537.61;;;5.93;100.00
50710;BME280;37033;49.994;21.992;2023-11-21T07:36:37;98538.53;;;5.93;100.00
50710;BME280;37033;49.994;21.992;2023-11-21T07:39:08;98538.02;;;5.95;100.00
50710;BME280;37033;49.994;21.992;2023-11-21T07:41:40;98542.66;;;5.97;100.00
50710;BME280;37033;49.994;21.992;2023-11-21T07:44:14;98543.34;;;5.98;100.00
50710;BME280;37033;49.994;21.992;2023-11-21T07:46:45;98546.56;;;5.99;100.00
50710;BME280;37033;49.994;21.992;2023-11-21T07:49:15;98549.13;;;6.01;100.00
50710;BME280;37033;49.994;21.992;2023-11-21T07:51:49;98547.23;;;6.03;100.00
50710;BME280;37033;49.994;21.992;2023-11-21T07:54:20;98547.92;;;6.04;100.00
50710;BME280;37033;49.994;21.992;2023-11-21T07:56:51;98549.16;;;6.05;100.00
50710;BME280;37033;49.994;21.992;2023-11-21T07:59:21;98548.67;;;6.08;100.00
50710;BME280;37033;49.994;21.992;2023-11-21T08:01:52;98553.62;;;6.09;100.00
50710;BME280;37033;49.994;21.992;2023-11-21T08:04:23;98558.73;;;6.13;100.00
50710;BME280;37033;49.994;21.992;2023-11-21T08:06:54;98558.90;;;6.17;100.00
50710;BME280;37033;49.994;21.992;2023-11-21T08:09:24;98561.98;;;6.19;100.00
50710;BME280;37033;49.994;21.992;2023-11-21T08:11:55;98563.22;;;6.21;100.00
50710;BME280;37033;49.994;21.992;2023-11-21T08:14:26;98564.00;;;6.24;100.00
50710;BME280;37033;49.994;21.992;2023-11-21T08:16:57;98564.52;;;6.25;100.00
50710;BME280;37033;49.994;21.992;2023-11-21T08:19:28;98559.95;;;6.28;100.00
50710;BME280;37033;49.994;21.992;2023-11-21T08:21:58;98565.11;;;6.30;100.00
50710;BME280;37033;49.994;21.992;2023-11-21T08:24:29;98567.19;;;6.33;100.00
50710;BME280;37033;49.994;21.992;2023-11-21T08:27:00;98569.15;;;6.34;100.00
50710;BME280;37033;49.994;21.992;2023-11-21T08:29:31;98568.40;;;6.37;100.00
50710;BME280;37033;49.994;21.992;2023-11-21T08:32:02;98572.05;;;6.38;100.00
50710;BME280;37033;49.994;21.992;2023-11-21T08:34:32;98567.32;;;6.39;100.00
50710;BME280;37033;49.994;21.992;2023-11-21T08:37:03;98568.83;;;6.41;100.00
50710;BME280;37033;49.994;21.992;2023-11-21T08:39:34;98569.83;;;6.42;100.00
50710;BME280;37033;49.994;21.992;2023-11-21T08:42:07;98566.52;;;6.44;100.00
50710;BME280;37033;49.994;21.992;2023-11-21T08:44:37;98567.10;;;6.46;100.00
50710;BME280;37033;49.994;21.992;2023-11-21T08:47:09;98568.05;;;6.47;100.00
50710;BME280;37033;49.994;21.992;2023-11-21T08:49:39;98571.98;;;6.48;100.00
50710;BME280;37033;49.994;21.992;2023-11-21T08:52:10;98576.71;;;6.48;100.00
50710;BME280;37033;49.994;21.992;2023-11-21T08:54:41;98577.21;;;6.50;100.00
50710;BME280;37033;49.994;21.992;2023-11-21T08:57:13;98575.77;;;6.52;100.00
50710;BME280;37033;49.994;21.992;2023-11-21T08:59:45;98576.89;;;6.54;100.00
50710;BME280;37033;49.994;21.992;2023-11-21T09:02:15;98578.48;;;6.56;100.00
50710;BME280;37033;49.994;21.992;2023-11-21T09:04:46;98576.08;;;6.59;100.00
50710;BME280;37033;49.994;21.992;2023-11-21T09:07:17;98579.80;;;6.61;100.00
50710;BME280;37033;49.994;21.992;2023-11-21T09:09:49;98578.77;;;6.63;100.00
50710;BME280;37033;49.994;21.992;2023-11-21T09:12:20;98580.65;;;6.65;100.00
50710;BME280;37033;49.994;21.992;2023-11-21T09:14:51;98578.42;;;6.66;100.00
50710;BME280;37033;49.994;21.992;2023-11-21T09:17:21;98579.02;;;6.69;100.00
50710;BME280;37033;49.994;21.992;2023-11-21T09:19:52;98579.27;;;6.70;100.00
50710;BME280;37033;49.994;21.992;2023-11-21T09:22:23;98577.31;;;6.72;100.00
50710;BME280;37033;49.994;21.992;2023-11-21T09:24:54;98580.20;;;6.74;100.00
50710;BME280;37033;49.994;21.992;2023-11-21T09:27:25;98580.47;;;6.74;100.00
50710;BME280;37033;49.994;21.992;2023-11-21T09:29:56;98580.27;;;6.74;100.00
50710;BME280;37033;49.994;21.992;2023-11-21T09:32:27;98575.59;;;6.76;100.00
50710;BME280;37033;49.994;21.992;2023-11-21T09:34:59;98572.61;;;6.77;100.00
50710;BME280;37033;49.994;21.992;2023-11-21T09:37:31;98570.48;;;6.78;100.00
50710;BME280;37033;49.994;21.992;2023-11-21T09:40:02;98569.91;;;6.80;100.00
50710;BME280;37033;49.994;21.992;2023-11-21T09:42:43;98566.20;;;6.80;100.00
50710;BME280;37033;49.994;21.992;2023-11-21T09:45:19;98570.20;;;6.81;100.00
50710;BME280;37033;49.994;21.992;2023-11-21T09:47:53;98572.36;;;6.83;100.00
50710;BME280;37033;49.994;21.992;2023-11-21T09:50:25;98570.06;;;6.84;100.00
50710;BME280;37033;49.994;21.992;2023-11-21T09:53:11;98571.67;;;6.84;100.00
50710;BME280;37033;49.994;21.992;2023-11-21T09:55:45;98570.37;;;6.84;100.00
50710;BME280;37033;49.994;21.992;2023-11-21T09:58:16;98570.26;;;6.83;100.00
50710;BME280;37033;49.994;21.992;2023-11-21T10:00:48;98572.14;;;6.84;100.00
50710;BME280;37033;49.994;21.992;2023-11-21T10:03:19;98570.45;;;6.85;100.00
50710;BME280;37033;49.994;21.992;2023-11-21T10:05:51;98569.61;;;6.86;100.00
50710;BME280;37033;49.994;21.992;2023-11-21T10:08:24;98573.88;;;6.88;100.00
50710;BME280;37033;49.994;21.992;2023-11-21T10:10:57;98575.20;;;6.90;100.00
50710;BME280;37033;49.994;21.992;2023-11-21T10:13:30;98580.15;;;6.91;100.00
50710;BME280;37033;49.994;21.992;2023-11-21T10:16:03;98581.30;;;6.95;100.00
50710;BME280;37033;49.994;21.992;2023-11-21T10:18:35;98582.67;;;6.96;100.00
50710;BME280;37033;49.994;21.992;2023-11-21T10:21:09;98583.25;;;6.97;100.00
50710;BME280;37033;49.994;21.992;2023-11-21T10:23:40;98580.28;;;6.98;100.00
50710;BME280;37033;49.994;21.992;2023-11-21T10:26:13;98582.09;;;6.99;100.00
50710;BME280;37033;49.994;21.992;2023-11-21T10:28:57;98583.42;;;7.01;100.00
50710;BME280;37033;49.994;21.992;2023-11-21T10:31:29;98589.08;;;7.02;100.00
50710;BME280;37033;49.994;21.992;2023-11-21T10:34:14;98594.48;;;7.03;100.00
50710;BME280;37033;49.994;21.992;2023-11-21T10:36:45;98595.23;;;7.00;100.00
50710;BME280;37033;49.994;21.992;2023-11-21T10:39:18;98593.08;;;6.96;100.00
50710;BME280;37033;49.994;21.992;2023-11-21T10:41:49;98598.91;;;6.94;100.00
50710;BME280;37033;49.994;21.992;2023-11-21T10:44:20;98601.98;;;6.89;100.00
50710;BME280;37033;49.994;21.992;2023-11-21T10:46:54;98599.35;;;6.85;100.00
50710;BME280;37033;49.994;21.992;2023-11-21T10:49:26;98603.07;;;6.79;100.00
50710;BME280;37033;49.994;21.992;2023-11-21T10:51:57;98601.52;;;6.76;100.00
50710;BME280;37033;49.994;21.992;2023-11-21T10:54:27;98603.19;;;6.73;100.00
50710;BME280;37033;49.994;21.992;2023-11-21T10:57:00;98607.98;;;6.69;100.00
50710;BME280;37033;49.994;21.992;2023-11-21T10:59:31;98612.33;;;6.66;100.00
50710;BME280;37033;49.994;21.992;2023-11-21T11:02:06;98611.06;;;6.60;100.00
50710;BME280;37033;49.994;21.992;2023-11-21T11:04:43;98613.63;;;6.56;100.00
50710;BME280;37033;49.994;21.992;2023-11-21T11:07:16;98613.29;;;6.54;100.00
50710;BME280;37033;49.994;21.992;2023-11-21T11:09:47;98618.11;;;6.51;100.00
50710;BME280;37033;49.994;21.992;2023-11-21T11:12:18;98619.19;;;6.49;100.00
50710;BME280;37033;49.994;21.992;2023-11-21T11:14:49;98618.92;;;6.47;100.00
50710;BME280;37033;49.994;21.992;2023-11-21T11:17:21;98617.70;;;6.44;100.00
50710;BME280;37033;49.994;21.992;2023-11-21T11:19:52;98618.30;;;6.42;100.00
50710;BME280;37033;49.994;21.992;2023-11-21T11:22:34;98620.39;;;6.37;100.00
50710;BME280;37033;49.994;21.992;2023-11-21T11:25:24;98626.60;;;6.32;100.00
50710;BME280;37033;49.994;21.992;2023-11-21T11:28:07;98628.06;;;6.28;100.00
50710;BME280;37033;49.994;21.992;2023-11-21T11:30:47;98635.79;;;6.26;100.00
50710;BME280;37033;49.994;21.992;2023-11-21T11:33:28;98635.45;;;6.22;100.00
50710;BME280;37033;49.994;21.992;2023-11-21T11:36:05;98635.55;;;6.19;100.00
50710;BME280;37033;49.994;21.992;2023-11-21T11:38:37;98638.70;;;6.19;100.00
50710;BME280;37033;49.994;21.992;2023-11-21T11:41:08;98638.77;;;6.17;100.00
50710;BME280;37033;49.994;21.992;2023-11-21T11:43:39;98643.75;;;6.17;100.00
50710;BME280;37033;49.994;21.992;2023-11-21T11:46:13;98646.83;;;6.14;100.00
50710;BME280;37033;49.994;21.992;2023-11-21T11:48:44;98647.95;;;6.12;100.00
50710;BME280;37033;49.994;21.992;2023-11-21T11:51:16;98646.38;;;6.11;100.00
50710;BME280;37033;49.994;21.992;2023-11-21T11:53:48;98645.75;;;6.10;100.00
50710;BME280;37033;49.994;21.992;2023-11-21T11:56:24;98648.71;;;6.12;100.00
50710;BME280;37033;49.994;21.992;2023-11-21T11:58:57;98650.73;;;6.08;100.00
50710;BME280;37033;49.994;21.992;2023-11-21T12:01:28;98653.74;;;6.06;100.00
50710;BME280;37033;49.994;21.992;2023-11-21T12:04:25;98651.41;;;6.04;100.00
50710;BME280;37033;49.994;21.992;2023-11-21T12:07:04;98653.05;;;6.02;100.00
50710;BME280;37033;49.994;21.992;2023-11-21T12:09:35;98654.31;;;6.01;100.00
50710;BME280;37033;49.994;21.992;2023-11-21T12:12:08;98657.73;;;6.00;100.00
50710;BME280;37033;49.994;21.992;2023-11-21T12:14:39;98663.13;;;5.98;100.00
50710;BME280;37033;49.994;21.992;2023-11-21T12:17:10;98657.21;;;5.97;100.00
50710;BME280;37033;49.994;21.992;2023-11-21T12:19:40;98661.48;;;5.95;100.00
50710;BME280;37033;49.994;21.992;2023-11-21T12:22:12;98665.11;;;5.95;100.00
50710;BME280;37033;49.994;21.992;2023-11-21T12:24:43;98664.96;;;5.96;100.00
50710;BME280;37033;49.994;21.992;2023-11-21T12:27:13;98669.25;;;5.94;100.00
50710;BME280;37033;49.994;21.992;2023-11-21T12:29:44;98666.90;;;5.92;100.00
50710;BME280;37033;49.994;21.992;2023-11-21T12:32:15;98665.77;;;5.93;100.00
50710;BME280;37033;49.994;21.992;2023-11-21T12:34:47;98668.56;;;5.92;100.00
50710;BME280;37033;49.994;21.992;2023-11-21T12:37:19;98668.95;;;5.91;100.00
50710;BME280;37033;49.994;21.992;2023-11-21T12:39:49;98671.31;;;5.91;100.00
50710;BME280;37033;49.994;21.992;2023-11-21T12:42:20;98675.13;;;5.92;100.00
50710;BME280;37033;49.994;21.992;2023-11-21T12:45:10;98682.05;;;5.92;100.00
50710;BME280;37033;49.994;21.992;2023-11-21T12:47:50;98686.61;;;5.93;100.00
50710;BME280;37033;49.994;21.992;2023-11-21T12:50:21;98688.81;;;5.93;100.00
50710;BME280;37033;49.994;21.992;2023-11-21T12:52:58;98692.80;;;5.92;100.00
50710;BME280;37033;49.994;21.992;2023-11-21T12:55:31;98694.84;;;5.92;100.00
50710;BME280;37033;49.994;21.992;2023-11-21T12:58:05;98701.11;;;5.92;100.00
50710;BME280;37033;49.994;21.992;2023-11-21T13:00:39;98701.95;;;5.92;100.00
50710;BME280;37033;49.994;21.992;2023-11-21T13:03:12;98704.39;;;5.91;100.00
50710;BME280;37033;49.994;21.992;2023-11-21T13:05:48;98708.31;;;5.90;100.00
50710;BME280;37033;49.994;21.992;2023-11-21T13:08:20;98711.56;;;5.88;100.00
50710;BME280;37033;49.994;21.992;2023-11-21T13:10:53;98710.17;;;5.88;100.00
50710;BME280;37033;49.994;21.992;2023-11-21T13:13:25;98708.34;;;5.91;100.00